Terminal Aerodrome Forecast
Issued by NWS Wilmington, OH

Current Version | Previous Version | Text Only | Print | Product List | Glossary Off
Versions: 1 2 3 4 5 6 7 8 9 10 11 12 13 14 15 16 17 18

000
FTUS41 KILN 221121
TAFCMH
TAF
KCMH 221121Z 2212/2312 17005KT P6SM SCT120 BKN250
     FM221400 18012KT P6SM FEW120 BKN250
     FM230000 15007KT P6SM SCT090 BKN250=

USA.gov is the U.S. government's official web portal to all federal, state and local government web resources and services.